Time;durP1;ratioP1;P1;durP2;ratioP2;P2;SDS_P1;SDS_P2;PMS_P1;PMS_P2;Temp;Humidity;BMP_temperature;BMP_pressure;BME280_temperature;BME280_humidity;BME280_pressure;Samples;Min_cycle;Max_cycle;Signal;HPM_P1;HPM_P2
2023/11/08 00:01:13;;;;;;;;;;;;;;;9.13;71.81;99271.19;4856101;29;19953;-68
2023/11/08 00:03:40;;;;;;;;;;;;;;;9.15;71.31;99277.25;4837269;29;19928;-68
2023/11/08 00:06:06;;;;;;;;;;;;;;;9.15;71.57;99279.84;4837441;29;19980;-67
2023/11/08 00:08:32;;;;;;;;;;;;;;;9.15;71.30;99280.69;4854322;29;19931;-67
2023/11/08 00:10:58;;;;;;;;;;;;;;;9.12;71.56;99280.72;4838262;29;20307;-68
2023/11/08 00:13:23;;;;;;;;;;;;;;;9.10;71.67;99282.47;4855400;29;19930;-67
2023/11/08 00:15:49;;;;;;;;;;;;;;;9.12;71.68;99279.88;4854362;29;20412;-68
2023/11/08 00:18:16;;;;;;;;;;;;;;;9.08;71.56;99268.63;4846064;29;19932;-67
2023/11/08 00:20:42;;;;;;;;;;;;;;;9.17;71.64;99276.34;4850318;29;20011;-67
2023/11/08 00:23:08;;;;;;;;;;;;;;;9.19;71.54;99284.09;4854359;29;20027;-67
2023/11/08 00:25:34;;;;;;;;;;;;;;;9.18;71.44;99278.06;4853426;29;20019;-67
2023/11/08 00:27:59;;;;;;;;;;;;;;;9.17;71.43;99286.72;4854158;29;19932;-67
2023/11/08 00:30:25;;;;;;;;;;;;;;;9.20;71.53;99280.63;4849189;29;20375;-67
2023/11/08 00:32:51;;;;;;;;;;;;;;;9.20;71.47;99283.22;4838084;29;19964;-68
2023/11/08 00:35:18;;;;;;;;;;;;;;;9.21;71.07;99284.94;4853290;29;19924;-67
2023/11/08 00:37:44;;;;;;;;;;;;;;;9.15;71.26;99288.47;4853114;29;20019;-67
2023/11/08 00:40:10;;;;;;;;;;;;;;;9.13;71.03;99282.44;4853591;29;20019;-67
2023/11/08 00:42:36;;;;;;;;;;;;;;;9.13;71.44;99285.03;4838471;29;19931;-68
2023/11/08 00:45:02;;;;;;;;;;;;;;;9.13;71.14;99279.84;4855736;29;19924;-68
2023/11/08 00:47:29;;;;;;;;;;;;;;;9.14;71.40;99283.31;4838145;29;19928;-68
2023/11/08 00:49:54;;;;;;;;;;;;;;;9.10;71.04;99281.63;4854188;29;20356;-68
2023/11/08 00:52:21;;;;;;;;;;;;;;;9.10;71.54;99281.63;4837825;29;20023;-67
2023/11/08 00:54:48;;;;;;;;;;;;;;;9.10;71.48;99289.41;4854083;29;20764;-68
2023/11/08 00:57:14;;;;;;;;;;;;;;;9.12;71.49;99285.06;4838071;29;19924;-67
2023/11/08 00:59:41;;;;;;;;;;;;;;;9.12;71.24;99285.06;4834484;29;19928;-67
2023/11/08 01:02:07;;;;;;;;;;;;;;;9.11;71.39;99279.00;4837550;29;19939;-67
2023/11/08 01:04:33;;;;;;;;;;;;;;;9.11;71.25;99286.78;4847959;29;19946;-68
2023/11/08 01:07:00;;;;;;;;;;;;;;;9.10;71.33;99285.06;4854020;29;20039;-68
2023/11/08 01:09:26;;;;;;;;;;;;;;;9.03;71.17;99292.06;4838050;29;19923;-70
2023/11/08 01:11:52;;;;;;;;;;;;;;;8.93;70.77;99287.84;4838845;29;19924;-71
2023/11/08 01:14:18;;;;;;;;;;;;;;;8.84;70.98;99288.78;4839011;29;19952;-70
2023/11/08 01:16:45;;;;;;;;;;;;;;;8.78;71.54;99281.06;4853730;29;19924;-68
2023/11/08 01:19:13;;;;;;;;;;;;;;;8.79;71.37;99297.50;4852432;29;20023;-70
2023/11/08 01:21:40;;;;;;;;;;;;;;;8.83;71.34;99296.59;4837266;29;19924;-68
2023/11/08 01:24:06;;;;;;;;;;;;;;;8.85;71.36;99293.09;4854239;29;20036;-69
2023/11/08 01:26:32;;;;;;;;;;;;;;;8.88;71.48;99287.03;4836336;29;20420;-67
2023/11/08 01:28:57;;;;;;;;;;;;;;;8.93;71.50;99285.25;4853877;29;19935;-67
2023/11/08 01:31:23;;;;;;;;;;;;;;;8.71;71.14;99251.75;4838027;29;20371;-67
2023/11/08 01:33:49;;;;;;;;;;;;;;;8.89;71.27;99289.59;4838134;29;20004;-68
2023/11/08 01:36:15;;;;;;;;;;;;;;;8.87;71.56;99293.09;4823190;29;19928;-67
2023/11/08 01:38:40;;;;;;;;;;;;;;;8.85;70.94;99279.28;4853075;29;19928;-67
2023/11/08 01:41:06;;;;;;;;;;;;;;;8.85;71.59;99282.72;4837420;29;19987;-67
2023/11/08 01:43:33;;;;;;;;;;;;;;;8.91;71.51;99278.34;4853713;29;19932;-67
2023/11/08 01:46:07;;;;;;;;;;;;;;;8.93;71.09;99285.25;4853954;29;19955;-67
2023/11/08 01:48:33;;;;;;;;;;;;;;;8.91;71.38;99283.53;4837648;29;19924;-67
2023/11/08 01:50:59;;;;;;;;;;;;;;;8.87;71.49;99286.16;4853407;29;19924;-68
2023/11/08 01:53:28;;;;;;;;;;;;;;;8.87;71.16;99272.34;4853081;29;19924;-67
2023/11/08 01:55:54;;;;;;;;;;;;;;;8.87;71.52;99280.13;4836831;29;20387;-66
2023/11/08 01:58:21;;;;;;;;;;;;;;;8.84;71.36;99278.41;4851930;29;19976;-67
2023/11/08 02:00:49;;;;;;;;;;;;;;;8.83;71.32;99281.03;4823031;29;20395;-67
2023/11/08 02:03:17;;;;;;;;;;;;;;;8.83;71.56;99284.47;4853478;29;19924;-67
2023/11/08 02:05:43;;;;;;;;;;;;;;;8.87;71.39;99285.31;4848532;29;19972;-67
2023/11/08 02:08:09;;;;;;;;;;;;;;;8.85;71.34;99287.91;4853623;29;20031;-68
2023/11/08 02:10:36;;;;;;;;;;;;;;;8.87;71.63;99287.91;4837370;29;20307;-67
2023/11/08 02:13:05;;;;;;;;;;;;;;;8.87;71.52;99285.31;4817329;29;19924;-69
2023/11/08 02:15:41;;;;;;;;;;;;;;;8.86;71.45;99289.63;4833015;29;19928;-68
2023/11/08 02:18:07;;;;;;;;;;;;;;;8.84;71.24;99285.34;4837899;29;20592;-68
2023/11/08 02:20:33;;;;;;;;;;;;;;;8.81;71.24;99293.16;4838431;29;20326;-69
2023/11/08 02:23:02;;;;;;;;;;;;;;;8.78;71.15;99295.75;4838569;29;20391;-68
2023/11/08 02:25:30;;;;;;;;;;;;;;;8.77;70.94;99294.03;4837398;29;19930;-66
2023/11/08 02:27:57;;;;;;;;;;;;;;;8.73;71.48;99290.63;4834250;29;19928;-69
2023/11/08 02:30:25;;;;;;;;;;;;;;;8.70;71.62;99288.94;4856499;29;19930;-68
2023/11/08 02:32:52;;;;;;;;;;;;;;;8.67;71.38;99281.19;4837076;29;19928;-68
2023/11/08 02:35:18;;;;;;;;;;;;;;;8.66;71.37;99288.97;4837039;29;19924;-69
2023/11/08 02:37:44;;;;;;;;;;;;;;;8.65;71.10;99289.84;4826538;29;19928;-67
2023/11/08 02:40:11;;;;;;;;;;;;;;;8.67;71.53;99291.56;4857427;29;20320;-69
2023/11/08 02:42:40;;;;;;;;;;;;;;;8.67;71.28;99291.56;4840537;29;19927;-67
2023/11/08 02:45:06;;;;;;;;;;;;;;;8.68;71.56;99290.69;4834633;29;19959;-67
2023/11/08 02:47:32;;;;;;;;;;;;;;;8.70;71.58;99290.66;4840249;29;19980;-70
2023/11/08 02:49:59;;;;;;;;;;;;;;;8.67;71.20;99288.09;4831435;29;19936;-67
2023/11/08 02:52:25;;;;;;;;;;;;;;;8.66;71.72;99289.84;4856348;29;20387;-71
2023/11/08 02:54:52;;;;;;;;;;;;;;;8.61;71.36;99278.63;4840400;29;19935;-67
2023/11/08 02:57:22;;;;;;;;;;;;;;;8.54;71.41;99280.44;4852156;29;19939;-69
2023/11/08 02:59:47;;;;;;;;;;;;;;;8.42;71.25;99281.34;4846857;29;19942;-68
2023/11/08 03:02:13;;;;;;;;;;;;;;;8.33;71.32;99283.16;4856782;29;19931;-67
2023/11/08 03:04:40;;;;;;;;;;;;;;;8.21;71.56;99286.72;4840312;29;20599;-67
2023/11/08 03:07:06;;;;;;;;;;;;;;;8.14;71.61;99278.97;4839926;29;19924;-69
2023/11/08 03:09:32;;;;;;;;;;;;;;;8.06;71.70;99283.34;4856154;29;19928;-67
2023/11/08 03:11:58;;;;;;;;;;;;;;;7.99;71.83;99289.47;4846639;29;20023;-72
2023/11/08 03:14:25;;;;;;;;;;;;;;;7.91;71.90;99293.81;4855613;29;19940;-69
2023/11/08 03:16:51;;;;;;;;;;;;;;;7.84;71.76;99296.44;4839722;29;20161;-68
2023/11/08 03:19:17;;;;;;;;;;;;;;;7.81;71.96;99300.78;4855724;29;19940;-70
2023/11/08 03:21:55;;;;;;;;;;;;;;;7.80;72.21;99297.34;4839800;29;19930;-71
2023/11/08 03:24:20;;;;;;;;;;;;;;;7.86;72.19;99295.56;4856513;29;19928;-71
2023/11/08 03:26:49;;;;;;;;;;;;;;;7.86;72.06;99299.03;4839265;29;20282;-71
2023/11/08 03:29:15;;;;;;;;;;;;;;;7.83;72.01;99307.66;4839709;29;19924;-67
2023/11/08 03:31:40;;;;;;;;;;;;;;;7.81;72.37;99308.56;4849421;29;19924;-68
2023/11/08 03:34:06;;;;;;;;;;;;;;;7.78;72.11;99303.38;4823828;29;20454;-68
2023/11/08 03:36:33;;;;;;;;;;;;;;;7.78;72.30;99309.44;4855992;29;20018;-68
2023/11/08 03:38:59;;;;;;;;;;;;;;;7.80;72.42;99310.28;4839426;29;19932;-69
2023/11/08 03:41:26;;;;;;;;;;;;;;;7.80;72.31;99306.81;4838851;29;19924;-70
2023/11/08 03:43:52;;;;;;;;;;;;;;;7.81;72.34;99313.72;4855771;29;19935;-70
2023/11/08 03:46:17;;;;;;;;;;;;;;;7.82;72.35;99313.75;4854442;29;20387;-70
2023/11/08 03:48:43;;;;;;;;;;;;;;;7.84;72.40;99318.91;4824136;29;19935;-71
2023/11/08 03:51:11;;;;;;;;;;;;;;;7.89;72.58;99314.56;4839277;29;20368;-75
2023/11/08 03:53:37;;;;;;;;;;;;;;;7.98;72.82;99311.91;4839021;29;19976;-72
2023/11/08 03:56:04;;;;;;;;;;;;;;;8.04;72.39;99318.78;4839159;29;20022;-72
2023/11/08 03:58:29;;;;;;;;;;;;;;;8.05;72.64;99314.47;4834476;29;19928;-72
2023/11/08 04:00:55;;;;;;;;;;;;;;;8.05;72.84;99312.75;4854722;29;19924;-71
2023/11/08 04:03:21;;;;;;;;;;;;;;;8.07;72.72;99315.31;4829224;29;19932;-72
2023/11/08 04:05:47;;;;;;;;;;;;;;;8.05;72.34;99323.13;4824338;29;19939;-73
2023/11/08 04:08:17;;;;;;;;;;;;;;;8.05;72.63;99323.13;4840170;29;19987;-73
2023/11/08 04:10:43;;;;;;;;;;;;;;;8.08;72.81;99322.22;4843830;29;19956;-69
2023/11/08 04:13:09;;;;;;;;;;;;;;;8.13;72.62;99328.25;4847837;29;20030;-71
2023/11/08 04:15:35;;;;;;;;;;;;;;;8.18;72.67;99326.47;4863003;29;19925;-72
2023/11/08 04:18:01;;;;;;;;;;;;;;;8.20;72.42;99318.69;4846394;29;20422;-70
2023/11/08 04:20:30;;;;;;;;;;;;;;;7.83;72.51;99266.22;4847101;29;20047;-71
2023/11/08 04:22:56;;;;;;;;;;;;;;;8.25;72.74;99342.84;4862669;29;19995;-71
2023/11/08 04:25:23;;;;;;;;;;;;;;;8.27;72.54;99341.97;4861552;29;19931;-72
2023/11/08 04:27:49;;;;;;;;;;;;;;;8.30;72.57;99343.66;4839590;29;19928;-71
2023/11/08 04:30:15;;;;;;;;;;;;;;;8.32;72.66;99348.84;4844892;29;19923;-71
2023/11/08 04:32:43;;;;;;;;;;;;;;;8.18;72.83;99315.25;4853572;29;20411;-72
2023/11/08 04:35:09;;;;;;;;;;;;;;;8.33;72.46;99338.47;4853789;29;20358;-69
2023/11/08 04:37:37;;;;;;;;;;;;;;;8.37;72.63;99342.75;4853816;29;20067;-69
2023/11/08 04:40:03;;;;;;;;;;;;;;;8.40;72.37;99342.75;4854567;29;20078;-67
2023/11/08 04:42:30;;;;;;;;;;;;;;;8.43;72.48;99342.72;4837863;29;20008;-70
2023/11/08 04:44:56;;;;;;;;;;;;;;;8.40;72.23;99347.91;4849901;29;19960;-69
2023/11/08 04:47:22;;;;;;;;;;;;;;;8.43;72.38;99347.91;4836441;29;20420;-69
2023/11/08 04:49:49;;;;;;;;;;;;;;;8.46;72.17;99338.38;4838110;29;19938;-69
2023/11/08 04:52:15;;;;;;;;;;;;;;;8.48;72.17;99339.25;4838720;29;19924;-70
2023/11/08 04:54:42;;;;;;;;;;;;;;;8.49;72.12;99343.59;4852772;29;19924;-69
2023/11/08 04:57:09;;;;;;;;;;;;;;;8.47;72.21;99346.13;4852692;29;19928;-70
2023/11/08 04:59:35;;;;;;;;;;;;;;;8.40;72.16;99337.56;4852379;29;19928;-70
2023/11/08 05:02:00;;;;;;;;;;;;;;;8.39;71.77;99348.78;4838635;29;20288;-70
2023/11/08 05:04:39;;;;;;;;;;;;;;;8.37;72.12;99350.53;4855158;29;19936;-70
2023/11/08 05:07:11;;;;;;;;;;;;;;;8.39;72.46;99355.69;4826425;29;19992;-71
2023/11/08 05:09:39;;;;;;;;;;;;;;;8.35;72.25;99359.22;4856529;29;20676;-71
2023/11/08 05:12:09;;;;;;;;;;;;;;;8.35;72.25;99352.28;4825851;29;19959;-70
2023/11/08 05:14:35;;;;;;;;;;;;;;;8.38;72.38;99352.25;4839398;29;19924;-70
2023/11/08 05:17:01;;;;;;;;;;;;;;;8.40;71.99;99347.91;4823623;29;19930;-71
2023/11/08 05:19:27;;;;;;;;;;;;;;;8.41;72.30;99349.66;4855082;29;19976;-69
2023/11/08 05:21:53;;;;;;;;;;;;;;;8.44;72.28;99357.41;4825143;29;20075;-70
2023/11/08 05:24:21;;;;;;;;;;;;;;;8.50;72.38;99360.84;4839533;29;19924;-70
2023/11/08 05:26:48;;;;;;;;;;;;;;;8.53;72.38;99353.91;4838586;29;19928;-71
2023/11/08 05:29:14;;;;;;;;;;;;;;;8.55;72.37;99359.06;4853903;29;19971;-70
2023/11/08 05:31:40;;;;;;;;;;;;;;;8.55;72.02;99356.47;4855126;29;19975;-70
2023/11/08 05:34:07;;;;;;;;;;;;;;;8.61;72.29;99361.63;4838965;29;19983;-69
2023/11/08 05:36:34;;;;;;;;;;;;;;;8.63;71.87;99356.41;4854476;29;19985;-70
2023/11/08 05:39:00;;;;;;;;;;;;;;;8.65;71.90;99359.88;4838575;29;19974;-70
2023/11/08 05:41:26;;;;;;;;;;;;;;;8.67;71.94;99366.78;4838061;29;19981;-69
2023/11/08 05:43:53;;;;;;;;;;;;;;;8.67;72.11;99373.69;4854178;29;19928;-70
2023/11/08 05:46:19;;;;;;;;;;;;;;;8.68;72.11;99365.03;4854389;29;19968;-69
2023/11/08 05:48:45;;;;;;;;;;;;;;;8.70;71.83;99368.47;4837498;29;19975;-70
2023/11/08 05:51:11;;;;;;;;;;;;;;;8.72;72.01;99369.31;4854134;29;19924;-69
2023/11/08 05:53:39;;;;;;;;;;;;;;;8.67;71.76;99366.78;4844347;29;20038;-70
2023/11/08 05:56:06;;;;;;;;;;;;;;;8.67;71.97;99368.50;4853600;29;19924;-69
2023/11/08 05:58:38;;;;;;;;;;;;;;;8.69;71.61;99379.72;4836994;29;19947;-70
2023/11/08 06:01:04;;;;;;;;;;;;;;;8.70;71.79;99379.72;4832197;29;19924;-70
2023/11/08 06:03:31;;;;;;;;;;;;;;;8.74;71.69;99371.03;4848837;29;20015;-70
2023/11/08 06:05:56;;;;;;;;;;;;;;;8.75;71.97;99374.50;4854058;29;20102;-70
2023/11/08 06:08:22;;;;;;;;;;;;;;;8.79;71.48;99372.72;4838385;29;19959;-69
2023/11/08 06:10:51;;;;;;;;;;;;;;;8.84;71.98;99377.00;4837821;29;19928;-70
2023/11/08 06:13:17;;;;;;;;;;;;;;;8.89;71.70;99379.56;4853138;29;20192;-71
2023/11/08 06:15:43;;;;;;;;;;;;;;;8.92;71.75;99378.66;4837290;29;19924;-71
2023/11/08 06:18:10;;;;;;;;;;;;;;;8.94;71.66;99382.13;4853744;29;20302;-70
2023/11/08 06:20:36;;;;;;;;;;;;;;;8.94;71.33;99376.94;4854082;29;19924;-70
2023/11/08 06:23:04;;;;;;;;;;;;;;;8.92;71.54;99378.66;4836842;29;19931;-69
2023/11/08 06:25:31;;;;;;;;;;;;;;;8.92;71.19;99378.66;4854685;29;20032;-69
2023/11/08 06:27:58;;;;;;;;;;;;;;;8.93;71.26;99381.28;4852413;29;20070;-71
2023/11/08 06:30:23;;;;;;;;;;;;;;;8.91;71.08;99384.72;4854031;29;20395;-70
2023/11/08 06:32:49;;;;;;;;;;;;;;;8.88;71.39;99385.63;4854320;29;19970;-69
2023/11/08 06:35:15;;;;;;;;;;;;;;;8.96;71.51;99381.22;4833792;29;19972;-69
2023/11/08 06:37:41;;;;;;;;;;;;;;;9.00;71.02;99387.25;4821962;29;20332;-69
2023/11/08 06:40:07;;;;;;;;;;;;;;;9.02;71.39;99382.91;4836875;29;20003;-70
2023/11/08 06:42:33;;;;;;;;;;;;;;;9.04;71.23;99388.97;4837546;29;19927;-70
2023/11/08 06:45:00;;;;;;;;;;;;;;;9.08;71.13;99393.22;4852934;29;20292;-71
2023/11/08 06:47:26;;;;;;;;;;;;;;;9.10;70.89;99395.81;4837078;29;20418;-70
2023/11/08 06:49:52;;;;;;;;;;;;;;;9.13;71.09;99386.25;4854099;29;20439;-71
2023/11/08 06:52:19;;;;;;;;;;;;;;;9.17;70.91;99387.06;4830074;29;19928;-72
2023/11/08 06:54:45;;;;;;;;;;;;;;;9.26;70.97;99384.41;4852172;29;20371;-71
2023/11/08 06:57:11;;;;;;;;;;;;;;;9.21;70.75;99388.78;4852959;29;19980;-69
2023/11/08 06:59:36;;;;;;;;;;;;;;;9.21;70.57;99396.56;4851748;29;19961;-70
2023/11/08 07:02:03;;;;;;;;;;;;;;;9.22;70.78;99397.44;4854758;29;19946;-69
2023/11/08 07:04:45;;;;;;;;;;;;;;;9.26;70.37;99391.34;5111381;27;20360;-68
2023/11/08 07:07:11;;;;;;;;;;;;;;;9.23;70.08;99392.22;5112335;28;20397;-68
2023/11/08 07:09:37;;;;;;;;;;;;;;;9.22;70.38;99398.28;5110804;28;19931;-71
2023/11/08 07:12:03;;;;;;;;;;;;;;;9.21;70.71;99390.53;5110978;28;19920;-70
2023/11/08 07:14:30;;;;;;;;;;;;;;;9.30;70.62;99395.59;5110597;28;20018;-70
2023/11/08 07:16:57;;;;;;;;;;;;;;;9.33;70.51;99400.78;5074880;28;19924;-69
2023/11/08 07:19:23;;;;;;;;;;;;;;;9.39;70.19;99400.72;5084467;28;19919;-69
2023/11/08 07:21:49;;;;;;;;;;;;;;;9.48;70.32;99394.56;5109883;28;19924;-68
2023/11/08 07:24:15;;;;;;;;;;;;;;;9.56;70.41;99395.34;5096707;28;19978;-70
2023/11/08 07:26:41;;;;;;;;;;;;;;;9.68;70.19;99396.06;5110318;27;20182;-69
2023/11/08 07:29:07;;;;;;;;;;;;;;;9.84;70.06;99399.34;5112545;28;19920;-69
2023/11/08 07:31:36;;;;;;;;;;;;;;;10.03;69.89;99389.59;5094524;28;19919;-69
2023/11/08 07:34:02;;;;;;;;;;;;;;;10.28;70.06;99402.25;5109481;28;20335;-68
2023/11/08 07:36:29;;;;;;;;;;;;;;;10.48;69.26;99400.25;5092285;28;19920;-68
2023/11/08 07:38:56;;;;;;;;;;;;;;;10.62;69.09;99402.63;5094057;28;19920;-70
2023/11/08 07:41:24;;;;;;;;;;;;;;;10.69;69.23;99406.03;5108502;28;20249;-67
2023/11/08 07:43:50;;;;;;;;;;;;;;;10.85;68.59;99407.50;5108167;28;19953;-69
2023/11/08 07:46:16;;;;;;;;;;;;;;;10.85;67.95;99402.28;5094408;28;19924;-69
2023/11/08 07:48:41;;;;;;;;;;;;;;;10.96;68.42;99409.03;5108521;28;19920;-69
2023/11/08 07:51:10;;;;;;;;;;;;;;;11.18;68.02;99406.06;5125539;27;19959;-68
2023/11/08 07:53:37;;;;;;;;;;;;;;;11.45;67.28;99405.56;5107500;27;19923;-70
2023/11/08 07:56:07;;;;;;;;;;;;;;;12.01;67.02;99395.81;5122443;27;19985;-69
2023/11/08 07:58:33;;;;;;;;;;;;;;;13.04;67.26;99403.00;5105723;28;19959;-70
2023/11/08 08:00:59;;;;;;;;;;;;;;;13.17;65.50;99394.88;5090159;28;19966;-69
2023/11/08 08:03:24;;;;;;;;;;;;;;;13.05;64.52;99396.03;5106290;28;20248;-68
2023/11/08 08:05:51;;;;;;;;;;;;;;;12.77;64.15;99408.03;5096387;28;19920;-69
2023/11/08 08:08:17;;;;;;;;;;;;;;;12.50;64.35;99401.69;5144358;27;19924;-70
2023/11/08 08:10:45;;;;;;;;;;;;;;;12.26;64.38;99403.13;5108629;28;20310;-68
2023/11/08 08:13:11;;;;;;;;;;;;;;;12.09;64.16;99411.31;5074839;28;19920;-69
2023/11/08 08:15:36;;;;;;;;;;;;;;;11.94;64.21;99412.44;5097738;28;20312;-69
2023/11/08 08:18:02;;;;;;;;;;;;;;;11.65;63.88;99417.38;5091948;28;19920;-69
2023/11/08 08:20:28;;;;;;;;;;;;;;;11.52;64.25;99424.56;5074899;28;19924;-69
2023/11/08 08:22:56;;;;;;;;;;;;;;;11.48;64.57;99427.25;5094214;28;19931;-70
2023/11/08 08:25:24;;;;;;;;;;;;;;;11.39;64.21;99425.69;5094103;28;19946;-69
2023/11/08 08:27:50;;;;;;;;;;;;;;;11.33;64.17;99420.56;5093485;28;19954;-69
2023/11/08 08:30:17;;;;;;;;;;;;;;;11.19;64.09;99426.03;5092267;28;19954;-69
2023/11/08 08:32:44;;;;;;;;;;;;;;;11.10;64.28;99435.72;5061854;28;19920;-68
2023/11/08 08:35:10;;;;;;;;;;;;;;;11.06;64.55;99436.66;5095441;28;19923;-70
2023/11/08 08:37:35;;;;;;;;;;;;;;;11.04;64.48;99438.44;5111473;27;20010;-68
2023/11/08 08:40:05;;;;;;;;;;;;;;;11.02;64.36;99436.75;5074238;28;20026;-69
2023/11/08 08:42:31;;;;;;;;;;;;;;;11.05;64.54;99432.34;5110450;27;19920;-69
2023/11/08 08:44:56;;;;;;;;;;;;;;;11.09;64.20;99435.75;5092529;28;19927;-70
2023/11/08 08:47:22;;;;;;;;;;;;;;;11.13;64.54;99443.50;5090065;28;20015;-68
2023/11/08 08:49:49;;;;;;;;;;;;;;;11.20;64.31;99444.25;5057309;28;20053;-68
2023/11/08 08:52:16;;;;;;;;;;;;;;;11.21;64.35;99445.09;5099209;28;19920;-69
2023/11/08 08:54:41;;;;;;;;;;;;;;;11.12;63.72;99436.56;5090532;28;19935;-68
2023/11/08 08:57:07;;;;;;;;;;;;;;;11.05;64.08;99437.53;5075271;28;19928;-68
2023/11/08 08:59:33;;;;;;;;;;;;;;;10.98;63.97;99448.94;5127072;27;20311;-69
2023/11/08 09:01:58;;;;;;;;;;;;;;;10.90;64.44;99440.41;5092250;28;19924;-70
2023/11/08 09:04:24;;;;;;;;;;;;;;;10.78;64.09;99444.06;5091468;28;20413;-69
2023/11/08 09:06:50;;;;;;;;;;;;;;;10.79;64.59;99451.81;5090792;28;20019;-69
2023/11/08 09:09:16;;;;;;;;;;;;;;;10.80;64.73;99439.69;5074486;28;20462;-67
2023/11/08 09:11:42;;;;;;;;;;;;;;;10.83;64.30;99443.09;5091807;28;20378;-69
2023/11/08 09:14:08;;;;;;;;;;;;;;;10.90;64.54;99440.41;5074857;28;19920;-70
2023/11/08 09:16:35;;;;;;;;;;;;;;;10.87;64.15;99443.91;5092974;28;19920;-69
2023/11/08 09:19:09;;;;;;;;;;;;;;;10.80;64.79;99447.50;5092838;28;19931;-69
2023/11/08 09:21:35;;;;;;;;;;;;;;;10.67;63.89;99441.63;5091669;28;19924;-70
2023/11/08 09:24:02;;;;;;;;;;;;;;;10.58;64.33;99441.75;5074463;28;20314;-69
2023/11/08 09:26:28;;;;;;;;;;;;;;;10.58;64.97;99442.63;5093140;28;19920;-69
2023/11/08 09:28:54;;;;;;;;;;;;;;;10.64;64.54;99446.88;5125995;27;20318;-69
2023/11/08 09:31:22;;;;;;;;;;;;;;;10.75;64.69;99454.50;5092189;28;19927;-70
2023/11/08 09:33:50;;;;;;;;;;;;;;;10.78;64.58;99452.72;5090245;28;20333;-69
2023/11/08 09:36:18;;;;;;;;;;;;;;;10.83;64.21;99440.50;5078547;28;20408;-70
2023/11/08 09:38:44;;;;;;;;;;;;;;;10.92;64.58;99439.47;5094917;28;19927;-69
2023/11/08 09:41:10;;;;;;;;;;;;;;;11.07;64.13;99434.91;5094709;28;19923;-68
2023/11/08 09:43:37;;;;;;;;;;;;;;;11.28;64.65;99433.69;5109471;27;19956;-71
2023/11/08 09:46:07;;;;;;;;;;;;;;;11.40;64.26;99436.06;5071782;28;19934;-71
2023/11/08 09:48:34;;;;;;;;;;;;;;;11.22;63.86;99387.78;5111864;27;19923;-69
2023/11/08 09:50:59;;;;;;;;;;;;;;;11.53;63.68;99436.69;5090762;28;19920;-70
2023/11/08 09:53:25;;;;;;;;;;;;;;;11.61;63.69;99441.75;5128456;27;19939;-69
2023/11/08 09:55:55;;;;;;;;;;;;;;;11.65;63.50;99440.81;5092475;28;20370;-70
2023/11/08 09:58:20;;;;;;;;;;;;;;;11.72;63.61;99438.94;5075754;28;20038;-69
2023/11/08 10:00:47;;;;;;;;;;;;;;;11.74;62.98;99432.84;5092589;28;20364;-70
2023/11/08 10:03:16;;;;;;;;;;;;;;;11.66;62.82;99429.50;5125937;27;20034;-70
2023/11/08 10:05:46;;;;;;;;;;;;;;;11.64;63.61;99433.88;5091844;28;19930;-71
2023/11/08 10:08:12;;;;;;;;;;;;;;;11.68;63.57;99427.72;5090287;28;20390;-69
2023/11/08 10:10:41;;;;;;;;;;;;;;;11.68;62.78;99429.50;5060791;28;19974;-69
2023/11/08 10:13:07;;;;;;;;;;;;;;;11.72;63.24;99434.63;5092148;28;19920;-70
2023/11/08 10:15:33;;;;;;;;;;;;;;;11.74;63.15;99432.84;5091548;28;20360;-69
2023/11/08 10:18:00;;;;;;;;;;;;;;;11.82;63.35;99429.19;5092553;28;20408;-71
2023/11/08 10:20:37;;;;;;;;;;;;;;;11.83;62.92;99425.69;5097374;27;20843;-70
2023/11/08 10:23:05;;;;;;;;;;;;;;;11.79;62.77;99434.50;5091698;28;19943;-70
2023/11/08 10:25:31;;;;;;;;;;;;;;;11.62;62.63;99435.66;5091284;28;19927;-70
2023/11/08 10:28:03;;;;;;;;;;;;;;;11.50;62.81;99435.91;5090278;28;19920;-68
2023/11/08 10:30:38;;;;;;;;;;;;;;;11.48;62.55;99441.13;5056307;28;21946;-69
2023/11/08 10:33:12;;;;;;;;;;;;;;;11.48;62.79;99432.47;5077345;28;19924;-71
2023/11/08 10:35:39;;;;;;;;;;;;;;;11.49;62.68;99432.44;5072788;28;19923;-70
2023/11/08 10:38:05;;;;;;;;;;;;;;;11.47;63.07;99412.50;5075127;28;19965;-69
2023/11/08 10:40:34;;;;;;;;;;;;;;;11.66;62.36;99429.50;5107089;27;19967;-70
2023/11/08 10:43:02;;;;;;;;;;;;;;;11.48;62.05;99424.66;5090614;28;19946;-70
2023/11/08 10:45:29;;;;;;;;;;;;;;;11.43;62.58;99419.53;5062642;28;19920;-70
2023/11/08 10:47:55;;;;;;;;;;;;;;;11.43;62.33;99422.13;5110434;27;19920;-69
2023/11/08 10:50:21;;;;;;;;;;;;;;;11.50;62.48;99413.28;5088734;28;20394;-69
2023/11/08 10:52:47;;;;;;;;;;;;;;;11.54;62.14;99417.56;5089363;28;19970;-70
2023/11/08 10:55:13;;;;;;;;;;;;;;;11.59;62.46;99412.25;5091647;28;19947;-69
2023/11/08 10:57:45;;;;;;;;;;;;;;;11.58;62.28;99426.22;5108150;27;20393;-71
2023/11/08 11:00:12;;;;;;;;;;;;;;;11.57;62.01;99419.28;5074833;28;20088;-70
2023/11/08 11:02:41;;;;;;;;;;;;;;;11.58;62.08;99416.63;5075151;28;19927;-69
2023/11/08 11:05:08;;;;;;;;;;;;;;;11.58;61.86;99426.22;5092490;28;19931;-69
2023/11/08 11:07:38;;;;;;;;;;;;;;;11.62;62.36;99421.78;5076470;28;20262;-69
2023/11/08 11:10:04;;;;;;;;;;;;;;;11.62;62.13;99422.63;5088074;28;19926;-69
2023/11/08 11:12:49;;;;;;;;;;;;;;;11.56;61.99;99421.00;5091967;28;19924;-70
2023/11/08 11:15:20;;;;;;;;;;;;;;;11.56;62.03;99422.78;5079400;28;20298;-70
2023/11/08 11:17:49;;;;;;;;;;;;;;;11.55;61.65;99415.84;5074830;28;20018;-70
2023/11/08 11:20:15;;;;;;;;;;;;;;;11.48;62.21;99415.06;5090047;28;19972;-70
2023/11/08 11:22:41;;;;;;;;;;;;;;;11.44;61.84;99418.66;5090235;28;20022;-70
2023/11/08 11:25:11;;;;;;;;;;;;;;;11.46;61.77;99414.28;5090047;28;20423;-70
2023/11/08 11:27:40;;;;;;;;;;;;;;;11.51;61.75;99403.75;5089158;28;19924;-69
2023/11/08 11:30:22;;;;;;;;;;;;;;;11.55;61.82;99408.03;5056925;28;19927;-70
2023/11/08 11:32:51;;;;;;;;;;;;;;;11.53;61.41;99412.41;5074285;28;19924;-70
2023/11/08 11:35:17;;;;;;;;;;;;;;;11.47;61.39;99415.13;5109008;28;19924;-71
2023/11/08 11:38:03;;;;;;;;;;;;;;;11.40;61.59;99412.63;5078093;28;20019;-70
2023/11/08 11:40:29;;;;;;;;;;;;;;;11.37;61.72;99411.81;5094603;28;19980;-71
2023/11/08 11:42:54;;;;;;;;;;;;;;;11.42;61.83;99407.38;5078795;28;19920;-71
2023/11/08 11:45:21;;;;;;;;;;;;;;;11.42;61.54;99405.63;5089592;28;19927;-70
2023/11/08 11:47:51;;;;;;;;;;;;;;;11.37;61.54;99406.63;5074069;28;19920;-69
2023/11/08 11:50:18;;;;;;;;;;;;;;;11.31;61.79;99402.38;5109980;27;19920;-70
2023/11/08 11:52:44;;;;;;;;;;;;;;;11.22;61.54;99405.13;5096012;28;19919;-71
2023/11/08 11:55:12;;;;;;;;;;;;;;;11.18;61.67;99401.75;5077091;28;20011;-70
2023/11/08 11:57:38;;;;;;;;;;;;;;;11.13;61.51;99408.75;5061027;28;20079;-69
2023/11/08 12:00:05;;;;;;;;;;;;;;;11.09;61.82;99407.09;5093600;28;19963;-68
2023/11/08 12:02:33;;;;;;;;;;;;;;;10.99;61.49;99404.66;5093892;28;20604;-70
2023/11/08 12:05:00;;;;;;;;;;;;;;;10.94;62.03;99403.00;5087386;28;19991;-69
2023/11/08 12:07:26;;;;;;;;;;;;;;;10.89;61.82;99402.25;5097694;28;19930;-69
2023/11/08 12:09:52;;;;;;;;;;;;;;;10.84;61.87;99397.09;5128069;27;20043;-69
2023/11/08 12:12:28;;;;;;;;;;;;;;;10.85;62.01;99393.59;5079029;28;20461;-71
2023/11/08 12:14:55;;;;;;;;;;;;;;;10.83;62.01;99395.38;5076204;28;19919;-71
2023/11/08 12:17:26;;;;;;;;;;;;;;;10.75;62.14;99394.66;5075721;28;19920;-71
2023/11/08 12:19:52;;;;;;;;;;;;;;;10.73;62.13;99399.03;5094245;28;19927;-71
2023/11/08 12:22:20;;;;;;;;;;;;;;;10.70;62.37;99400.78;5076374;28;19924;-72
2023/11/08 12:24:47;;;;;;;;;;;;;;;10.70;62.10;99398.19;5081507;28;20292;-70
2023/11/08 12:27:13;;;;;;;;;;;;;;;10.70;62.48;99384.34;5076410;28;19920;-72
2023/11/08 12:29:42;;;;;;;;;;;;;;;10.69;62.16;99391.25;5096207;28;19993;-69
2023/11/08 12:32:09;;;;;;;;;;;;;;;10.70;62.35;99381.72;5070711;28;19920;-69
2023/11/08 12:34:35;;;;;;;;;;;;;;;10.65;62.50;99386.97;5091914;28;19920;-70
2023/11/08 12:37:02;;;;;;;;;;;;;;;10.58;62.21;99390.59;5092917;28;20409;-69
2023/11/08 12:39:28;;;;;;;;;;;;;;;10.53;62.41;99390.63;5090259;28;19920;-70
2023/11/08 12:41:55;;;;;;;;;;;;;;;10.50;62.65;99382.88;5092067;28;20448;-69
2023/11/08 12:44:32;;;;;;;;;;;;;;;10.47;62.42;99388.16;5110934;27;20015;-69
2023/11/08 12:47:06;;;;;;;;;;;;;;;10.45;62.73;99395.13;5075943;28;19919;-70
2023/11/08 12:49:36;;;;;;;;;;;;;;;10.42;62.83;99389.94;5114305;27;20347;-69
2023/11/08 12:52:03;;;;;;;;;;;;;;;10.38;62.88;99378.72;5076498;28;20262;-71